Rotan, Texas
Current Conditions -  °F | °C
As of 11:55 AM on Friday 24 Oct 2014 (Local Time) from KSWW Reporting Station
Clear Clear  
Wind Chill: 76°   Ceiling: Unl
Heat Index: 76°   Visibility: 10mi
Dew Point: 60°   Wind: 9mph
Humidity: 59%   Direction: 210°SSW
Pressure: 30.22"   Gusts: NA
Location:  32.85°N, 100.47°W
Report Text: KSWW 241655Z AUTO 21008KT 10SM CLR 24/16 A3022 RMK AO2 T02420158
Loading
Personal Weather Stations






























Interactive Weather Map New forecast layout! Learn more

10-Day Weather Forecast

Advertisements
Track Severe Weather on mobile